Terminal Aerodrome Forecast
Issued by NWS

Home | Current Version | Previous Version | Text Only | Print | Product List | Glossary On
Versions: 1 2 3 4 5 6 7 8 9 10 11 12 13 14 15 16 17 18 19 20 21 22 23 24 25 26 27 28 29 30 31 32 33
000
FTUS43 KBIS 231546 AAD
TAFMOT
TAF AMD
KMOT 231546Z 2316/2412 08015KT 1SM -SN OVC010
      TEMPO 2316/2317 3SM -SN OVC025
     FM231700 10016G24KT P6SM OVC030
     FM231900 10016G24KT P6SM OVC015
     FM240800 08012G20KT P6SM OVC008
     FM241000 06010KT P6SM OVC008
     FM241100 05010KT 4SM -SN OVC008=

USA.gov is the U.S. government's official web portal to all federal, state and local government web resources and services.